»·PEaware :: N165YP KYKM-KMWH

N165YP :: KYKM-KMWH

FLIGHT INFORMATION

Flight Status: Arrived
Operator: Privately registered:
United States
More flights under this callsign
Pilot: Allen F. (27411)
Aircraft: CESSNA 172 SKYHAWK
(C172)
More flights by this aircraft type
Origin: KYKM Yakima Air Term/Mcallister
United States
Destination: KMWH Grant Co Intl
United States
More flights between these airports :: More routes between these airports
Route: +WENAS7 RUBEL MWH
File this flight plan on PilotEdge
Remarks: +CW / arc vor-1 rwy 14 L
Altitude:
(Current/Filed)
6,000ft
Speed:
(Current/Filed)
110kts
Departed: 23-Mar-20 05:24 PM
Arrived: 23-Mar-20 06:25 PM
Distance/Time
Traveled:
63nm/1:01
Distance/Time
To Go:
Arrived

Flight Plot

Page will automatically refresh every two minutes.


Map Options




Map Legend


Flown Route
Filed Route
Departure Airport
Arrival Airport
Navaid (VOR, NDB)
Fix

Horizontal Profiles

Position Reports

Time Latitude Longitude Heading Altitude Ground
Speed
23-Mar-20 16:47 46.559819 -120.534004 269 1103ft 0kts
23-Mar-20 16:48 46.559819 -120.534004 269 1103ft 0kts
23-Mar-20 16:49 46.559819 -120.534004 269 1103ft 0kts
23-Mar-20 16:50 46.559819 -120.534004 269 1103ft 0kts
23-Mar-20 16:51 46.559819 -120.534004 269 1103ft 0kts
23-Mar-20 16:52 46.559819 -120.534004 269 1103ft 0kts
23-Mar-20 16:53 46.559819 -120.534004 269 1103ft 0kts
23-Mar-20 16:54 46.559819 -120.534004 269 1103ft 0kts
23-Mar-20 16:55 46.559819 -120.534004 269 1103ft 0kts
23-Mar-20 16:56 46.559819 -120.534004 269 1103ft 0kts
23-Mar-20 16:57 46.559819 -120.534004 269 1103ft 0kts
23-Mar-20 16:58 46.559819 -120.534004 269 1103ft 0kts
23-Mar-20 16:59 46.559819 -120.534004 269 1103ft 0kts
23-Mar-20 17:00 46.559819 -120.534004 269 1103ft 0kts
23-Mar-20 17:01 46.559819 -120.534004 269 1103ft 0kts
23-Mar-20 17:02 46.559819 -120.534004 269 1103ft 0kts
23-Mar-20 17:03 46.559819 -120.534004 269 1103ft 0kts
23-Mar-20 17:04 46.559819 -120.534004 269 1103ft 0kts
23-Mar-20 17:05 46.559819 -120.534004 269 1103ft 0kts
23-Mar-20 17:06 46.559819 -120.534004 269 1103ft 0kts
23-Mar-20 17:07 46.559819 -120.534004 269 1103ft 0kts
23-Mar-20 17:08 46.559819 -120.534004 269 1103ft 0kts
23-Mar-20 17:09 46.559819 -120.534004 269 1103ft 0kts
23-Mar-20 17:10 46.559819 -120.534004 269 1103ft 0kts
23-Mar-20 17:11 46.559819 -120.534004 269 1103ft 0kts
23-Mar-20 17:12 46.559819 -120.534004 269 1103ft 0kts
23-Mar-20 17:13 46.559819 -120.534004 269 1103ft 0kts
23-Mar-20 17:14 46.559819 -120.534004 269 1103ft 0kts
23-Mar-20 17:15 46.559819 -120.534004 269 1103ft 0kts
23-Mar-20 17:16 46.559819 -120.534004 269 1103ft 0kts
23-Mar-20 17:17 46.559819 -120.534004 269 1103ft 0kts
23-Mar-20 17:18 46.559837 -120.534027 337 1103ft 0kts
23-Mar-20 17:19 46.564857 -120.534260 0 1103ft 18kts
23-Mar-20 17:20 46.565119 -120.534259 357 1103ft 0kts
23-Mar-20 17:21 46.565119 -120.534259 357 1103ft 0kts
23-Mar-20 17:22 46.565119 -120.534259 357 1103ft 0kts
23-Mar-20 17:23 46.567190 -120.538157 290 1103ft 58kts
23-Mar-20 17:24 46.571362 -120.569342 295 1912ft 81kts
23-Mar-20 17:25 46.592280 -120.567534 46 2632ft 98kts
23-Mar-20 17:26 46.600174 -120.532568 72 3536ft 83kts
23-Mar-20 17:27 46.608178 -120.500564 68 4246ft 89kts
23-Mar-20 17:28 46.616105 -120.467035 71 5068ft 82kts
23-Mar-20 17:29 46.624486 -120.436518 80 5772ft 79kts
23-Mar-20 17:30 46.635097 -120.403963 61 5977ft 97kts
23-Mar-20 17:31 46.650502 -120.371086 58 5959ft 99kts
23-Mar-20 17:33 46.663766 -120.335001 63 5905ft 101kts
23-Mar-20 17:34 46.673222 -120.297709 82 5925ft 98kts
23-Mar-20 17:35 46.683146 -120.260755 68 5941ft 97kts
23-Mar-20 17:36 46.688427 -120.222152 92 5948ft 97kts
23-Mar-20 17:37 46.700325 -120.188351 50 5922ft 99kts
23-Mar-20 17:38 46.722089 -120.161275 42 5795ft 105kts
23-Mar-20 17:39 46.740012 -120.132409 55 5917ft 94kts
23-Mar-20 17:40 46.753316 -120.098547 68 5995ft 88kts
23-Mar-20 17:41 46.767981 -120.069309 43 6074ft 86kts
23-Mar-20 17:42 46.791033 -120.051830 34 6068ft 92kts
23-Mar-20 17:43 46.811404 -120.029509 39 6225ft 96kts
23-Mar-20 17:44 46.831000 -120.000834 38 6270ft 98kts
23-Mar-20 17:45 46.853045 -119.975223 35 6289ft 102kts
23-Mar-20 17:46 46.872764 -119.943382 63 6183ft 108kts
23-Mar-20 17:47 46.888245 -119.906586 54 6194ft 103kts
23-Mar-20 17:47 46.906543 -119.883878 28 6056ft 113kts
23-Mar-20 17:49 46.934815 -119.853510 44 5807ft 106kts
23-Mar-20 17:50 46.960563 -119.832442 34 5885ft 97kts
23-Mar-20 17:50 46.979169 -119.807834 19 6000ft 104kts
23-Mar-20 17:52 47.013629 -119.803816 14 6167ft 118kts
23-Mar-20 17:53 47.044585 -119.787742 17 5928ft 118kts
23-Mar-20 17:53 47.069414 -119.775174 14 5773ft 119kts
23-Mar-20 17:54 47.099139 -119.765472 10 5884ft 105kts
23-Mar-20 17:56 47.131177 -119.744828 23 6100ft 113kts
23-Mar-20 17:56 47.155858 -119.728972 25 6003ft 117kts
23-Mar-20 17:57 47.185421 -119.709894 23 5960ft 113kts
23-Mar-20 17:58 47.213737 -119.689247 23 5918ft 114kts
23-Mar-20 17:59 47.242280 -119.670214 24 5912ft 110kts
23-Mar-20 18:00 47.270216 -119.651471 17 5892ft 115kts
23-Mar-20 18:01 47.300667 -119.648429 330 5849ft 114kts
23-Mar-20 18:02 47.330374 -119.664951 342 5502ft 126kts
23-Mar-20 18:03 47.363533 -119.670388 357 4554ft 124kts
23-Mar-20 18:04 47.395838 -119.670531 1 4023ft 96kts
23-Mar-20 18:05 47.421909 -119.665390 15 4027ft 94kts
23-Mar-20 18:06 47.446138 -119.651556 27 4027ft 93kts
23-Mar-20 18:07 47.468699 -119.632636 35 4027ft 93kts
23-Mar-20 18:08 47.488674 -119.608039 40 4027ft 93kts
23-Mar-20 18:09 47.507318 -119.581334 48 4027ft 93kts
23-Mar-20 18:10 47.521258 -119.549080 62 4027ft 93kts
23-Mar-20 18:11 47.512632 -119.519591 146 4027ft 93kts
23-Mar-20 18:12 47.491132 -119.498190 145 4027ft 93kts
23-Mar-20 18:13 47.469568 -119.476903 149 4027ft 93kts
23-Mar-20 18:14 47.446469 -119.459268 154 4027ft 93kts
23-Mar-20 18:15 47.422849 -119.443295 154 4027ft 93kts
23-Mar-20 18:16 47.399277 -119.427272 154 4027ft 93kts
23-Mar-20 18:17 47.375892 -119.411281 154 3992ft 87kts
23-Mar-20 18:18 47.349841 -119.394333 154 2503ft 104kts
23-Mar-20 18:19 47.324553 -119.381200 158 1778ft 87kts
23-Mar-20 18:20 47.302454 -119.367616 149 1923ft 100kts
23-Mar-20 18:21 47.280274 -119.352517 146 1903ft 88kts
23-Mar-20 18:22 47.256420 -119.341571 160 1819ft 87kts
23-Mar-20 18:23 47.233232 -119.330199 161 1398ft 84kts
23-Mar-20 18:24 47.218961 -119.323326 164 1189ft 0kts
23-Mar-20 18:25 47.208122 -119.318457 161 1189ft 63kts
23-Mar-20 18:26 47.191346 -119.310730 146 1189ft 38kts
23-Mar-20 18:27 47.190701 -119.308606 145 1189ft 0kts
23-Mar-20 18:28 47.189578 -119.306815 300 1189ft 23kts
23-Mar-20 18:29 47.192574 -119.307649 29 1189ft 18kts
23-Mar-20 18:30 47.193471 -119.303527 112 1189ft 18kts
23-Mar-20 18:31 47.193666 -119.303070 9 1189ft 0kts
23-Mar-20 18:32 47.193666 -119.303070 9 1189ft 0kts
23-Mar-20 18:33 47.193666 -119.303070 9 1189ft 0kts
23-Mar-20 18:34 47.193666 -119.303070 9 1189ft 0kts
23-Mar-20 18:35 47.193666 -119.303070 9 1189ft 0kts
23-Mar-20 18:36 47.193666 -119.303070 9 1189ft 0kts
23-Mar-20 18:37 47.193666 -119.303070 9 1189ft 0kts
23-Mar-20 18:38 47.193666 -119.303070 9 1189ft 0kts
23-Mar-20 18:39 47.193666 -119.303070 9 1189ft 0kts

Navigation Log

Ident Type
Flight plan parsing failed, navigation log unavailable